sensor_id;sensor_type;location;lat;lon;timestamp;temperature;humidity
10192;DHT22;17580;50.850;4.504;2023-02-11T00:01:51;6.40;99.90
10192;DHT22;17580;50.850;4.504;2023-02-11T00:04:18;6.30;99.90
10192;DHT22;17580;50.850;4.504;2023-02-11T00:06:46;6.40;99.90
10192;DHT22;17580;50.850;4.504;2023-02-11T00:09:13;6.30;99.90
10192;DHT22;17580;50.850;4.504;2023-02-11T00:11:40;6.30;99.90
10192;DHT22;17580;50.850;4.504;2023-02-11T00:14:08;6.30;99.90
10192;DHT22;17580;50.850;4.504;2023-02-11T00:16:36;6.20;99.90
10192;DHT22;17580;50.850;4.504;2023-02-11T00:19:03;6.20;99.90
10192;DHT22;17580;50.850;4.504;2023-02-11T00:21:31;6.20;99.90
10192;DHT22;17580;50.850;4.504;2023-02-11T00:24:00;6.10;99.90
10192;DHT22;17580;50.850;4.504;2023-02-11T00:26:30;6.10;99.90
10192;DHT22;17580;50.850;4.504;2023-02-11T00:28:57;6.10;99.90
10192;DHT22;17580;50.850;4.504;2023-02-11T00:31:26;6.10;99.90
10192;DHT22;17580;50.850;4.504;2023-02-11T00:33:54;6.10;99.90
10192;DHT22;17580;50.850;4.504;2023-02-11T00:36:22;6.00;99.90
10192;DHT22;17580;50.850;4.504;2023-02-11T00:38:51;6.00;99.90
10192;DHT22;17580;50.850;4.504;2023-02-11T00:41:20;5.90;99.90
10192;DHT22;17580;50.850;4.504;2023-02-11T00:43:48;5.90;99.90
10192;DHT22;17580;50.850;4.504;2023-02-11T00:46:15;5.90;99.90
10192;DHT22;17580;50.850;4.504;2023-02-11T00:48:42;5.90;99.90
10192;DHT22;17580;50.850;4.504;2023-02-11T00:51:10;5.90;99.90
10192;DHT22;17580;50.850;4.504;2023-02-11T00:53:37;5.90;99.90
10192;DHT22;17580;50.850;4.504;2023-02-11T00:56:05;5.80;99.90
10192;DHT22;17580;50.850;4.504;2023-02-11T00:58:33;5.80;99.90
10192;DHT22;17580;50.850;4.504;2023-02-11T01:01:00;5.80;99.90
10192;DHT22;17580;50.850;4.504;2023-02-11T01:03:28;5.80;99.90
10192;DHT22;17580;50.850;4.504;2023-02-11T01:05:55;5.80;99.90
10192;DHT22;17580;50.850;4.504;2023-02-11T01:08:22;5.70;99.90
10192;DHT22;17580;50.850;4.504;2023-02-11T01:10:56;5.80;99.90
10192;DHT22;17580;50.850;4.504;2023-02-11T01:13:24;5.70;99.90
10192;DHT22;17580;50.850;4.504;2023-02-11T01:15:53;5.70;99.90
10192;DHT22;17580;50.850;4.504;2023-02-11T01:18:20;5.80;99.90
10192;DHT22;17580;50.850;4.504;2023-02-11T01:20:47;5.80;99.90
10192;DHT22;17580;50.850;4.504;2023-02-11T01:23:14;5.90;99.90
10192;DHT22;17580;50.850;4.504;2023-02-11T01:25:41;5.90;99.90
10192;DHT22;17580;50.850;4.504;2023-02-11T01:28:14;5.90;99.90
10192;DHT22;17580;50.850;4.504;2023-02-11T01:30:42;5.90;99.90
10192;DHT22;17580;50.850;4.504;2023-02-11T01:33:10;5.90;99.90
10192;DHT22;17580;50.850;4.504;2023-02-11T01:35:37;6.00;99.90
10192;DHT22;17580;50.850;4.504;2023-02-11T01:38:05;6.00;99.90
10192;DHT22;17580;50.850;4.504;2023-02-11T01:40:33;6.10;99.90
10192;DHT22;17580;50.850;4.504;2023-02-11T01:43:00;6.10;99.90
10192;DHT22;17580;50.850;4.504;2023-02-11T01:45:59;6.10;99.90
10192;DHT22;17580;50.850;4.504;2023-02-11T01:48:29;6.20;99.90
10192;DHT22;17580;50.850;4.504;2023-02-11T01:51:01;6.10;99.90
10192;DHT22;17580;50.850;4.504;2023-02-11T01:53:29;6.10;99.90
10192;DHT22;17580;50.850;4.504;2023-02-11T01:56:16;6.10;99.90
10192;DHT22;17580;50.850;4.504;2023-02-11T01:59:11;6.10;99.90
10192;DHT22;17580;50.850;4.504;2023-02-11T02:01:42;6.10;99.90
10192;DHT22;17580;50.850;4.504;2023-02-11T02:04:14;6.10;99.90
10192;DHT22;17580;50.850;4.504;2023-02-11T02:06:48;6.10;99.90
10192;DHT22;17580;50.850;4.504;2023-02-11T02:09:20;6.10;99.90
10192;DHT22;17580;50.850;4.504;2023-02-11T02:11:48;6.10;99.90
10192;DHT22;17580;50.850;4.504;2023-02-11T02:14:16;6.20;99.90
10192;DHT22;17580;50.850;4.504;2023-02-11T02:16:43;6.20;99.90
10192;DHT22;17580;50.850;4.504;2023-02-11T02:19:39;6.30;99.90
10192;DHT22;17580;50.850;4.504;2023-02-11T02:25:54;6.30;99.90
10192;DHT22;17580;50.850;4.504;2023-02-11T02:28:41;6.30;99.90
10192;DHT22;17580;50.850;4.504;2023-02-11T02:31:34;6.30;99.90
10192;DHT22;17580;50.850;4.504;2023-02-11T02:34:10;6.30;99.90
10192;DHT22;17580;50.850;4.504;2023-02-11T02:36:44;6.40;99.90
10192;DHT22;17580;50.850;4.504;2023-02-11T02:39:19;6.40;99.90
10192;DHT22;17580;50.850;4.504;2023-02-11T02:41:48;6.40;99.90
10192;DHT22;17580;50.850;4.504;2023-02-11T02:44:17;6.40;99.90
10192;DHT22;17580;50.850;4.504;2023-02-11T02:46:44;6.50;99.90
10192;DHT22;17580;50.850;4.504;2023-02-11T02:49:14;6.50;99.90
10192;DHT22;17580;50.850;4.504;2023-02-11T02:52:04;6.40;99.90
10192;DHT22;17580;50.850;4.504;2023-02-11T02:54:53;6.40;99.90
10192;DHT22;17580;50.850;4.504;2023-02-11T02:57:29;6.40;99.90
10192;DHT22;17580;50.850;4.504;2023-02-11T03:00:18;6.50;99.90
10192;DHT22;17580;50.850;4.504;2023-02-11T03:05:46;6.50;99.90
10192;DHT22;17580;50.850;4.504;2023-02-11T03:08:17;6.60;99.90
10192;DHT22;17580;50.850;4.504;2023-02-11T03:10:51;6.60;99.90
10192;DHT22;17580;50.850;4.504;2023-02-11T03:13:21;6.60;99.90
10192;DHT22;17580;50.850;4.504;2023-02-11T03:15:52;6.50;99.90
10192;DHT22;17580;50.850;4.504;2023-02-11T03:18:26;6.50;99.90
10192;DHT22;17580;50.850;4.504;2023-02-11T03:20:56;6.50;99.90
10192;DHT22;17580;50.850;4.504;2023-02-11T03:23:27;6.50;99.90
10192;DHT22;17580;50.850;4.504;2023-02-11T03:25:57;6.50;99.90
10192;DHT22;17580;50.850;4.504;2023-02-11T03:28:30;6.50;99.90
10192;DHT22;17580;50.850;4.504;2023-02-11T03:31:07;6.50;99.90
10192;DHT22;17580;50.850;4.504;2023-02-11T03:33:39;6.40;99.90
10192;DHT22;17580;50.850;4.504;2023-02-11T03:36:16;6.40;99.90
10192;DHT22;17580;50.850;4.504;2023-02-11T03:38:46;6.50;99.90
10192;DHT22;17580;50.850;4.504;2023-02-11T03:41:17;6.50;99.90
10192;DHT22;17580;50.850;4.504;2023-02-11T03:43:48;6.50;99.90
10192;DHT22;17580;50.850;4.504;2023-02-11T03:46:20;6.50;99.90
10192;DHT22;17580;50.850;4.504;2023-02-11T03:48:51;6.60;99.90
10192;DHT22;17580;50.850;4.504;2023-02-11T03:51:22;6.60;99.90
10192;DHT22;17580;50.850;4.504;2023-02-11T03:53:52;6.60;99.90
10192;DHT22;17580;50.850;4.504;2023-02-11T03:56:24;6.60;99.90
10192;DHT22;17580;50.850;4.504;2023-02-11T03:58:52;6.60;99.90
10192;DHT22;17580;50.850;4.504;2023-02-11T04:01:19;6.70;99.90
10192;DHT22;17580;50.850;4.504;2023-02-11T04:03:46;6.70;99.90
10192;DHT22;17580;50.850;4.504;2023-02-11T04:06:13;6.70;99.90
10192;DHT22;17580;50.850;4.504;2023-02-11T04:08:41;6.80;99.90
10192;DHT22;17580;50.850;4.504;2023-02-11T04:11:08;6.60;99.90
10192;DHT22;17580;50.850;4.504;2023-02-11T04:13:35;6.60;99.90
10192;DHT22;17580;50.850;4.504;2023-02-11T04:16:02;6.60;99.90
10192;DHT22;17580;50.850;4.504;2023-02-11T04:18:29;6.60;99.90
10192;DHT22;17580;50.850;4.504;2023-02-11T04:20:56;6.70;99.90
10192;DHT22;17580;50.850;4.504;2023-02-11T04:23:23;6.80;99.90
10192;DHT22;17580;50.850;4.504;2023-02-11T04:25:52;6.80;99.90
10192;DHT22;17580;50.850;4.504;2023-02-11T04:28:19;6.80;99.90
10192;DHT22;17580;50.850;4.504;2023-02-11T04:30:47;6.80;99.90
10192;DHT22;17580;50.850;4.504;2023-02-11T04:33:14;6.80;99.90
10192;DHT22;17580;50.850;4.504;2023-02-11T04:35:42;6.70;99.90
10192;DHT22;17580;50.850;4.504;2023-02-11T04:38:08;6.80;99.90
10192;DHT22;17580;50.850;4.504;2023-02-11T04:40:36;6.80;99.90
10192;DHT22;17580;50.850;4.504;2023-02-11T04:43:04;6.80;99.90
10192;DHT22;17580;50.850;4.504;2023-02-11T04:45:31;6.80;99.90
10192;DHT22;17580;50.850;4.504;2023-02-11T04:47:58;6.80;99.90
10192;DHT22;17580;50.850;4.504;2023-02-11T04:50:27;6.70;99.90
10192;DHT22;17580;50.850;4.504;2023-02-11T04:52:54;6.80;99.90
10192;DHT22;17580;50.850;4.504;2023-02-11T04:55:20;6.80;99.90
10192;DHT22;17580;50.850;4.504;2023-02-11T04:57:47;6.70;99.90
10192;DHT22;17580;50.850;4.504;2023-02-11T05:00:16;6.80;99.90
10192;DHT22;17580;50.850;4.504;2023-02-11T05:02:43;6.70;99.90
10192;DHT22;17580;50.850;4.504;2023-02-11T05:05:10;6.70;99.90
10192;DHT22;17580;50.850;4.504;2023-02-11T05:07:37;6.70;99.90
10192;DHT22;17580;50.850;4.504;2023-02-11T05:10:05;6.70;99.90
10192;DHT22;17580;50.850;4.504;2023-02-11T05:12:32;6.70;99.90
10192;DHT22;17580;50.850;4.504;2023-02-11T05:14:59;6.60;99.90
10192;DHT22;17580;50.850;4.504;2023-02-11T05:17:27;6.70;99.90
10192;DHT22;17580;50.850;4.504;2023-02-11T05:19:54;6.70;99.90
10192;DHT22;17580;50.850;4.504;2023-02-11T05:22:21;6.70;99.90
10192;DHT22;17580;50.850;4.504;2023-02-11T05:24:49;6.70;99.90
10192;DHT22;17580;50.850;4.504;2023-02-11T05:27:16;6.60;99.90
10192;DHT22;17580;50.850;4.504;2023-02-11T05:29:43;6.70;99.90
10192;DHT22;17580;50.850;4.504;2023-02-11T05:32:10;6.60;99.90
10192;DHT22;17580;50.850;4.504;2023-02-11T05:34:39;6.60;99.90
10192;DHT22;17580;50.850;4.504;2023-02-11T05:37:06;6.60;99.90
10192;DHT22;17580;50.850;4.504;2023-02-11T05:39:33;6.60;99.90
10192;DHT22;17580;50.850;4.504;2023-02-11T05:42:00;6.60;99.90
10192;DHT22;17580;50.850;4.504;2023-02-11T05:44:26;6.60;99.90
10192;DHT22;17580;50.850;4.504;2023-02-11T05:46:54;6.60;99.90
10192;DHT22;17580;50.850;4.504;2023-02-11T05:49:20;6.60;99.90
10192;DHT22;17580;50.850;4.504;2023-02-11T05:51:49;6.60;99.90
10192;DHT22;17580;50.850;4.504;2023-02-11T05:54:16;6.60;99.90
10192;DHT22;17580;50.850;4.504;2023-02-11T05:56:43;6.70;99.90
10192;DHT22;17580;50.850;4.504;2023-02-11T05:59:13;6.70;99.90
10192;DHT22;17580;50.850;4.504;2023-02-11T06:01:40;6.70;99.90
10192;DHT22;17580;50.850;4.504;2023-02-11T06:04:07;6.80;99.90
10192;DHT22;17580;50.850;4.504;2023-02-11T06:06:34;6.80;99.90
10192;DHT22;17580;50.850;4.504;2023-02-11T06:09:03;6.80;99.90
10192;DHT22;17580;50.850;4.504;2023-02-11T06:11:30;6.80;99.90
10192;DHT22;17580;50.850;4.504;2023-02-11T06:13:57;6.80;99.90
10192;DHT22;17580;50.850;4.504;2023-02-11T06:16:24;6.80;99.90
10192;DHT22;17580;50.850;4.504;2023-02-11T06:18:51;6.80;99.90
10192;DHT22;17580;50.850;4.504;2023-02-11T06:21:18;6.80;99.90
10192;DHT22;17580;50.850;4.504;2023-02-11T06:23:45;6.80;99.90
10192;DHT22;17580;50.850;4.504;2023-02-11T06:26:20;6.90;99.90
10192;DHT22;17580;50.850;4.504;2023-02-11T06:28:47;6.90;99.90
10192;DHT22;17580;50.850;4.504;2023-02-11T06:31:15;6.80;99.90
10192;DHT22;17580;50.850;4.504;2023-02-11T06:33:42;6.80;99.90
10192;DHT22;17580;50.850;4.504;2023-02-11T06:36:14;6.80;99.90
10192;DHT22;17580;50.850;4.504;2023-02-11T06:38:41;6.80;99.90
10192;DHT22;17580;50.850;4.504;2023-02-11T06:41:09;6.70;99.90
10192;DHT22;17580;50.850;4.504;2023-02-11T06:43:38;6.70;99.90
10192;DHT22;17580;50.850;4.504;2023-02-11T06:46:05;6.70;99.90
10192;DHT22;17580;50.850;4.504;2023-02-11T06:48:33;6.80;99.90
10192;DHT22;17580;50.850;4.504;2023-02-11T06:51:01;6.80;99.90
10192;DHT22;17580;50.850;4.504;2023-02-11T06:53:29;6.90;99.90
10192;DHT22;17580;50.850;4.504;2023-02-11T06:56:01;6.90;99.90
10192;DHT22;17580;50.850;4.504;2023-02-11T06:58:28;6.90;99.90
10192;DHT22;17580;50.850;4.504;2023-02-11T07:00:57;6.90;99.90
10192;DHT22;17580;50.850;4.504;2023-02-11T07:03:24;6.90;99.90
10192;DHT22;17580;50.850;4.504;2023-02-11T07:05:51;6.90;99.90
10192;DHT22;17580;50.850;4.504;2023-02-11T07:08:18;6.90;99.90
10192;DHT22;17580;50.850;4.504;2023-02-11T07:10:45;6.90;99.90
10192;DHT22;17580;50.850;4.504;2023-02-11T07:13:12;7.00;99.90
10192;DHT22;17580;50.850;4.504;2023-02-11T07:15:39;7.00;99.90
10192;DHT22;17580;50.850;4.504;2023-02-11T07:18:07;6.90;99.90
10192;DHT22;17580;50.850;4.504;2023-02-11T07:20:36;6.90;99.90
10192;DHT22;17580;50.850;4.504;2023-02-11T07:23:03;6.90;99.90
10192;DHT22;17580;50.850;4.504;2023-02-11T07:25:30;6.90;99.90
10192;DHT22;17580;50.850;4.504;2023-02-11T07:27:57;6.90;99.90
10192;DHT22;17580;50.850;4.504;2023-02-11T07:30:24;6.90;99.90
10192;DHT22;17580;50.850;4.504;2023-02-11T07:32:51;7.00;99.90
10192;DHT22;17580;50.850;4.504;2023-02-11T07:35:19;6.90;99.90
10192;DHT22;17580;50.850;4.504;2023-02-11T07:37:46;6.90;99.90
10192;DHT22;17580;50.850;4.504;2023-02-11T07:40:13;6.90;99.90
10192;DHT22;17580;50.850;4.504;2023-02-11T07:42:40;6.90;99.90
10192;DHT22;17580;50.850;4.504;2023-02-11T07:45:08;6.90;99.90
10192;DHT22;17580;50.850;4.504;2023-02-11T07:47:35;7.00;99.90
10192;DHT22;17580;50.850;4.504;2023-02-11T07:50:03;7.10;99.90
10192;DHT22;17580;50.850;4.504;2023-02-11T07:52:32;7.00;99.90
10192;DHT22;17580;50.850;4.504;2023-02-11T07:54:59;7.10;99.90
10192;DHT22;17580;50.850;4.504;2023-02-11T07:57:27;7.10;99.90
10192;DHT22;17580;50.850;4.504;2023-02-11T07:59:54;7.10;99.90
10192;DHT22;17580;50.850;4.504;2023-02-11T08:02:21;7.10;99.90
10192;DHT22;17580;50.850;4.504;2023-02-11T08:04:49;7.00;99.90
10192;DHT22;17580;50.850;4.504;2023-02-11T08:07:16;7.10;99.90
10192;DHT22;17580;50.850;4.504;2023-02-11T08:09:45;7.20;99.90
10192;DHT22;17580;50.850;4.504;2023-02-11T08:12:12;7.20;99.90
10192;DHT22;17580;50.850;4.504;2023-02-11T08:14:39;7.20;99.90
10192;DHT22;17580;50.850;4.504;2023-02-11T08:17:06;7.20;99.90
10192;DHT22;17580;50.850;4.504;2023-02-11T08:19:33;7.20;99.90
10192;DHT22;17580;50.850;4.504;2023-02-11T08:22:00;7.20;99.90
10192;DHT22;17580;50.850;4.504;2023-02-11T08:24:27;7.30;99.90
10192;DHT22;17580;50.850;4.504;2023-02-11T08:26:55;7.30;99.90
10192;DHT22;17580;50.850;4.504;2023-02-11T08:29:22;7.40;99.90
10192;DHT22;17580;50.850;4.504;2023-02-11T08:31:49;7.40;99.90
10192;DHT22;17580;50.850;4.504;2023-02-11T08:34:17;7.30;99.90
10192;DHT22;17580;50.850;4.504;2023-02-11T08:36:46;7.30;99.90
10192;DHT22;17580;50.850;4.504;2023-02-11T08:39:15;7.20;99.90
10192;DHT22;17580;50.850;4.504;2023-02-11T08:41:43;7.30;99.90
10192;DHT22;17580;50.850;4.504;2023-02-11T08:44:12;7.30;99.90
10192;DHT22;17580;50.850;4.504;2023-02-11T08:46:38;7.30;99.90
10192;DHT22;17580;50.850;4.504;2023-02-11T08:49:06;7.30;99.90
10192;DHT22;17580;50.850;4.504;2023-02-11T08:51:32;7.30;99.90
10192;DHT22;17580;50.850;4.504;2023-02-11T08:54:00;7.40;99.90
10192;DHT22;17580;50.850;4.504;2023-02-11T08:56:27;7.40;99.90
10192;DHT22;17580;50.850;4.504;2023-02-11T08:58:56;7.40;99.90
10192;DHT22;17580;50.850;4.504;2023-02-11T09:01:26;7.40;99.90
10192;DHT22;17580;50.850;4.504;2023-02-11T09:03:54;7.50;99.90
10192;DHT22;17580;50.850;4.504;2023-02-11T09:06:22;7.50;99.90
10192;DHT22;17580;50.850;4.504;2023-02-11T09:08:51;7.40;99.90
10192;DHT22;17580;50.850;4.504;2023-02-11T09:11:20;7.40;99.90
10192;DHT22;17580;50.850;4.504;2023-02-11T09:13:47;7.40;99.90
10192;DHT22;17580;50.850;4.504;2023-02-11T09:16:16;7.40;99.90
10192;DHT22;17580;50.850;4.504;2023-02-11T09:18:45;7.40;99.90
10192;DHT22;17580;50.850;4.504;2023-02-11T09:21:13;7.40;99.90
10192;DHT22;17580;50.850;4.504;2023-02-11T09:23:41;7.40;99.90
10192;DHT22;17580;50.850;4.504;2023-02-11T09:26:12;7.40;99.90
10192;DHT22;17580;50.850;4.504;2023-02-11T09:28:40;7.50;99.90
10192;DHT22;17580;50.850;4.504;2023-02-11T09:31:08;7.60;99.90
10192;DHT22;17580;50.850;4.504;2023-02-11T09:33:37;7.50;99.90
10192;DHT22;17580;50.850;4.504;2023-02-11T09:36:06;7.40;99.90
10192;DHT22;17580;50.850;4.504;2023-02-11T09:38:34;7.50;99.90
10192;DHT22;17580;50.850;4.504;2023-02-11T09:41:01;7.50;99.90
10192;DHT22;17580;50.850;4.504;2023-02-11T09:43:35;7.50;99.90
10192;DHT22;17580;50.850;4.504;2023-02-11T09:46:05;7.70;99.90
10192;DHT22;17580;50.850;4.504;2023-02-11T09:48:38;7.70;99.90
10192;DHT22;17580;50.850;4.504;2023-02-11T09:51:15;7.60;99.90
10192;DHT22;17580;50.850;4.504;2023-02-11T09:53:45;7.60;99.90
10192;DHT22;17580;50.850;4.504;2023-02-11T09:56:14;7.70;99.90
10192;DHT22;17580;50.850;4.504;2023-02-11T09:58:42;7.70;99.90
10192;DHT22;17580;50.850;4.504;2023-02-11T10:01:15;7.80;99.90
10192;DHT22;17580;50.850;4.504;2023-02-11T10:03:58;7.90;99.90
10192;DHT22;17580;50.850;4.504;2023-02-11T10:06:39;8.00;99.90
10192;DHT22;17580;50.850;4.504;2023-02-11T10:12:19;7.80;99.90
10192;DHT22;17580;50.850;4.504;2023-02-11T10:15:07;7.90;99.90
10192;DHT22;17580;50.850;4.504;2023-02-11T10:17:48;7.90;99.90
10192;DHT22;17580;50.850;4.504;2023-02-11T10:20:24;7.90;99.90
10192;DHT22;17580;50.850;4.504;2023-02-11T10:22:59;7.90;99.90
10192;DHT22;17580;50.850;4.504;2023-02-11T10:25:32;8.00;99.90
10192;DHT22;17580;50.850;4.504;2023-02-11T10:28:05;8.10;99.90
10192;DHT22;17580;50.850;4.504;2023-02-11T10:30:40;8.10;99.90
10192;DHT22;17580;50.850;4.504;2023-02-11T10:33:14;8.20;99.90
10192;DHT22;17580;50.850;4.504;2023-02-11T10:35:43;8.10;99.90
10192;DHT22;17580;50.850;4.504;2023-02-11T10:38:12;8.10;99.90
10192;DHT22;17580;50.850;4.504;2023-02-11T10:40:39;8.20;99.90
10192;DHT22;17580;50.850;4.504;2023-02-11T10:43:09;8.30;99.90
10192;DHT22;17580;50.850;4.504;2023-02-11T10:45:42;8.40;99.90
10192;DHT22;17580;50.850;4.504;2023-02-11T10:48:43;8.30;99.90
10192;DHT22;17580;50.850;4.504;2023-02-11T10:51:19;8.30;99.90
10192;DHT22;17580;50.850;4.504;2023-02-11T10:53:50;8.40;99.90
10192;DHT22;17580;50.850;4.504;2023-02-11T10:56:22;8.40;99.90
10192;DHT22;17580;50.850;4.504;2023-02-11T10:58:58;8.30;99.90
10192;DHT22;17580;50.850;4.504;2023-02-11T11:01:44;8.30;99.90
10192;DHT22;17580;50.850;4.504;2023-02-11T11:04:34;8.30;99.90
10192;DHT22;17580;50.850;4.504;2023-02-11T11:07:15;8.20;99.90
10192;DHT22;17580;50.850;4.504;2023-02-11T11:09:47;8.30;99.90
10192;DHT22;17580;50.850;4.504;2023-02-11T11:12:34;8.30;99.90
10192;DHT22;17580;50.850;4.504;2023-02-11T11:15:15;8.30;99.90
10192;DHT22;17580;50.850;4.504;2023-02-11T11:17:43;8.30;99.90
10192;DHT22;17580;50.850;4.504;2023-02-11T11:20:20;8.20;99.90
10192;DHT22;17580;50.850;4.504;2023-02-11T11:22:48;8.30;99.90
10192;DHT22;17580;50.850;4.504;2023-02-11T11:25:25;8.30;99.90
10192;DHT22;17580;50.850;4.504;2023-02-11T11:27:55;8.40;99.90
10192;DHT22;17580;50.850;4.504;2023-02-11T11:30:25;8.50;99.90
10192;DHT22;17580;50.850;4.504;2023-02-11T11:32:54;8.40;99.90
10192;DHT22;17580;50.850;4.504;2023-02-11T11:35:24;8.40;99.90
10192;DHT22;17580;50.850;4.504;2023-02-11T11:37:53;8.40;99.90
10192;DHT22;17580;50.850;4.504;2023-02-11T11:40:24;8.40;99.90
10192;DHT22;17580;50.850;4.504;2023-02-11T11:43:14;8.50;99.90
10192;DHT22;17580;50.850;4.504;2023-02-11T11:45:53;8.60;99.90
10192;DHT22;17580;50.850;4.504;2023-02-11T11:48:24;8.50;99.90
10192;DHT22;17580;50.850;4.504;2023-02-11T11:50:53;8.50;99.90
10192;DHT22;17580;50.850;4.504;2023-02-11T11:53:28;8.50;99.90
10192;DHT22;17580;50.850;4.504;2023-02-11T11:56:03;8.60;99.90
10192;DHT22;17580;50.850;4.504;2023-02-11T11:58:32;8.60;99.90
10192;DHT22;17580;50.850;4.504;2023-02-11T12:01:06;8.60;99.90
10192;DHT22;17580;50.850;4.504;2023-02-11T12:04:04;8.60;99.90
10192;DHT22;17580;50.850;4.504;2023-02-11T12:06:46;8.70;99.90
10192;DHT22;17580;50.850;4.504;2023-02-11T12:09:22;8.60;99.90
10192;DHT22;17580;50.850;4.504;2023-02-11T12:12:10;8.60;99.90
10192;DHT22;17580;50.850;4.504;2023-02-11T12:14:44;8.50;99.90
10192;DHT22;17580;50.850;4.504;2023-02-11T12:17:24;8.50;99.90
10192;DHT22;17580;50.850;4.504;2023-02-11T12:20:11;8.60;99.90
10192;DHT22;17580;50.850;4.504;2023-02-11T12:22:48;8.60;99.90
10192;DHT22;17580;50.850;4.504;2023-02-11T12:25:25;8.60;99.90
10192;DHT22;17580;50.850;4.504;2023-02-11T12:28:06;8.70;99.90
10192;DHT22;17580;50.850;4.504;2023-02-11T12:30:47;8.70;99.90
10192;DHT22;17580;50.850;4.504;2023-02-11T12:33:24;8.70;99.90
10192;DHT22;17580;50.850;4.504;2023-02-11T12:35:58;8.80;99.90
10192;DHT22;17580;50.850;4.504;2023-02-11T12:38:51;8.80;99.90
10192;DHT22;17580;50.850;4.504;2023-02-11T12:41:30;8.80;99.90
10192;DHT22;17580;50.850;4.504;2023-02-11T12:44:24;8.80;99.90
10192;DHT22;17580;50.850;4.504;2023-02-11T12:46:57;8.80;99.90
10192;DHT22;17580;50.850;4.504;2023-02-11T12:49:51;8.80;99.90
10192;DHT22;17580;50.850;4.504;2023-02-11T12:52:31;8.90;99.90
10192;DHT22;17580;50.850;4.504;2023-02-11T12:55:06;9.00;99.90
10192;DHT22;17580;50.850;4.504;2023-02-11T12:57:36;8.90;99.90
10192;DHT22;17580;50.850;4.504;2023-02-11T13:00:15;9.00;99.90
10192;DHT22;17580;50.850;4.504;2023-02-11T13:02:48;8.90;99.90
10192;DHT22;17580;50.850;4.504;2023-02-11T13:05:25;8.80;99.90
10192;DHT22;17580;50.850;4.504;2023-02-11T13:07:57;8.80;99.90
10192;DHT22;17580;50.850;4.504;2023-02-11T13:10:32;8.80;99.90
10192;DHT22;17580;50.850;4.504;2023-02-11T13:13:01;8.80;99.90
10192;DHT22;17580;50.850;4.504;2023-02-11T13:15:49;8.80;99.90
10192;DHT22;17580;50.850;4.504;2023-02-11T13:18:32;8.80;99.90
10192;DHT22;17580;50.850;4.504;2023-02-11T13:21:14;8.90;99.90
10192;DHT22;17580;50.850;4.504;2023-02-11T13:23:45;8.90;99.90
10192;DHT22;17580;50.850;4.504;2023-02-11T13:26:20;8.90;99.90
10192;DHT22;17580;50.850;4.504;2023-02-11T13:28:53;8.90;99.90
10192;DHT22;17580;50.850;4.504;2023-02-11T13:31:24;8.90;99.90
10192;DHT22;17580;50.850;4.504;2023-02-11T13:33:53;8.90;99.90
10192;DHT22;17580;50.850;4.504;2023-02-11T13:36:22;9.00;99.90
10192;DHT22;17580;50.850;4.504;2023-02-11T13:39:02;9.00;99.90
10192;DHT22;17580;50.850;4.504;2023-02-11T13:41:33;9.10;99.90
10192;DHT22;17580;50.850;4.504;2023-02-11T13:44:03;9.00;99.90
10192;DHT22;17580;50.850;4.504;2023-02-11T13:46:54;8.90;99.90
10192;DHT22;17580;50.850;4.504;2023-02-11T13:49:31;9.00;99.90
10192;DHT22;17580;50.850;4.504;2023-02-11T13:52:02;9.00;99.90
10192;DHT22;17580;50.850;4.504;2023-02-11T13:54:33;9.10;99.90
10192;DHT22;17580;50.850;4.504;2023-02-11T13:57:33;9.10;99.90
10192;DHT22;17580;50.850;4.504;2023-02-11T14:00:02;9.10;99.90
10192;DHT22;17580;50.850;4.504;2023-02-11T14:02:33;9.20;99.90
10192;DHT22;17580;50.850;4.504;2023-02-11T14:05:28;9.20;99.90
10192;DHT22;17580;50.850;4.504;2023-02-11T14:08:23;9.20;99.90
10192;DHT22;17580;50.850;4.504;2023-02-11T14:11:42;9.20;99.90
10192;DHT22;17580;50.850;4.504;2023-02-11T14:14:21;9.20;99.90
10192;DHT22;17580;50.850;4.504;2023-02-11T14:17:33;9.20;99.90
10192;DHT22;17580;50.850;4.504;2023-02-11T14:20:02;9.10;99.90
10192;DHT22;17580;50.850;4.504;2023-02-11T14:22:41;9.10;99.90
10192;DHT22;17580;50.850;4.504;2023-02-11T14:25:21;9.20;99.90
10192;DHT22;17580;50.850;4.504;2023-02-11T14:27:51;9.20;99.90
10192;DHT22;17580;50.850;4.504;2023-02-11T14:30:48;9.20;99.90
10192;DHT22;17580;50.850;4.504;2023-02-11T14:33:41;9.30;99.90
10192;DHT22;17580;50.850;4.504;2023-02-11T14:36:22;9.30;99.90
10192;DHT22;17580;50.850;4.504;2023-02-11T14:39:02;9.30;99.90
10192;DHT22;17580;50.850;4.504;2023-02-11T14:41:37;9.30;99.90
10192;DHT22;17580;50.850;4.504;2023-02-11T14:44:11;9.30;99.90
10192;DHT22;17580;50.850;4.504;2023-02-11T14:46:43;9.30;99.90
10192;DHT22;17580;50.850;4.504;2023-02-11T14:49:20;9.30;99.90
10192;DHT22;17580;50.850;4.504;2023-02-11T14:51:50;9.20;99.90
10192;DHT22;17580;50.850;4.504;2023-02-11T14:54:20;9.20;99.90
10192;DHT22;17580;50.850;4.504;2023-02-11T14:57:07;9.20;99.90
10192;DHT22;17580;50.850;4.504;2023-02-11T14:59:34;9.30;99.90
10192;DHT22;17580;50.850;4.504;2023-02-11T15:02:01;9.20;99.90
10192;DHT22;17580;50.850;4.504;2023-02-11T15:04:31;9.20;99.90
10192;DHT22;17580;50.850;4.504;2023-02-11T15:07:05;9.20;99.90
10192;DHT22;17580;50.850;4.504;2023-02-11T15:09:38;9.30;99.90
10192;DHT22;17580;50.850;4.504;2023-02-11T15:12:16;9.20;99.90
10192;DHT22;17580;50.850;4.504;2023-02-11T15:14:46;9.20;99.90
10192;DHT22;17580;50.850;4.504;2023-02-11T15:17:17;9.20;99.90
10192;DHT22;17580;50.850;4.504;2023-02-11T15:19:48;9.30;99.90
10192;DHT22;17580;50.850;4.504;2023-02-11T15:22:19;9.30;99.90
10192;DHT22;17580;50.850;4.504;2023-02-11T15:24:58;9.30;99.90
10192;DHT22;17580;50.850;4.504;2023-02-11T15:27:26;9.20;99.90
10192;DHT22;17580;50.850;4.504;2023-02-11T15:29:53;9.20;99.90
10192;DHT22;17580;50.850;4.504;2023-02-11T15:32:22;9.20;99.90
10192;DHT22;17580;50.850;4.504;2023-02-11T15:34:52;9.30;99.90
10192;DHT22;17580;50.850;4.504;2023-02-11T15:37:23;9.20;99.90
10192;DHT22;17580;50.850;4.504;2023-02-11T15:39:51;9.20;99.90
10192;DHT22;17580;50.850;4.504;2023-02-11T15:42:22;9.20;99.90
10192;DHT22;17580;50.850;4.504;2023-02-11T15:45:07;9.20;99.90
10192;DHT22;17580;50.850;4.504;2023-02-11T15:47:34;9.20;99.90
10192;DHT22;17580;50.850;4.504;2023-02-11T15:50:03;9.20;99.90
10192;DHT22;17580;50.850;4.504;2023-02-11T15:52:31;9.30;99.90
10192;DHT22;17580;50.850;4.504;2023-02-11T15:54:59;9.30;99.90
10192;DHT22;17580;50.850;4.504;2023-02-11T15:57:28;9.30;99.90
10192;DHT22;17580;50.850;4.504;2023-02-11T15:59:55;9.30;99.90
10192;DHT22;17580;50.850;4.504;2023-02-11T16:02:30;9.30;99.90
10192;DHT22;17580;50.850;4.504;2023-02-11T16:05:00;9.20;99.90
10192;DHT22;17580;50.850;4.504;2023-02-11T16:07:41;9.20;99.90
10192;DHT22;17580;50.850;4.504;2023-02-11T16:10:17;9.30;99.90
10192;DHT22;17580;50.850;4.504;2023-02-11T16:12:51;9.20;99.90
10192;DHT22;17580;50.850;4.504;2023-02-11T16:15:29;9.30;99.90
10192;DHT22;17580;50.850;4.504;2023-02-11T16:17:57;9.20;99.90
10192;DHT22;17580;50.850;4.504;2023-02-11T16:20:24;9.30;99.90
10192;DHT22;17580;50.850;4.504;2023-02-11T16:22:53;9.20;99.90
10192;DHT22;17580;50.850;4.504;2023-02-11T16:25:21;9.20;99.90